createdAt,value
2023-05-14T00:01:36.878Z,2.52
2023-05-14T00:04:06.464Z,2.50
2023-05-14T00:06:35.530Z,2.50
2023-05-14T00:09:04.969Z,2.60
2023-05-14T00:11:34.160Z,2.67
2023-05-14T00:14:02.896Z,2.31
2023-05-14T00:16:32.245Z,2.79
2023-05-14T00:19:01.433Z,2.81
2023-05-14T00:21:30.432Z,2.66
2023-05-14T00:23:59.955Z,2.84
2023-05-14T00:26:29.104Z,2.78
2023-05-14T00:28:57.815Z,2.96
2023-05-14T00:31:26.480Z,2.94
2023-05-14T00:33:55.434Z,2.53
2023-05-14T00:36:24.782Z,3.01
2023-05-14T00:38:53.637Z,3.06
2023-05-14T00:41:22.492Z,3.09
2023-05-14T00:43:51.200Z,3.08
2023-05-14T00:46:20.356Z,2.96
2023-05-14T00:48:49.957Z,3.00
2023-05-14T00:51:20.040Z,2.98
2023-05-14T00:53:49.660Z,2.90
2023-05-14T00:56:19.231Z,3.07
2023-05-14T00:58:48.073Z,3.02
2023-05-14T01:01:17.333Z,2.97
2023-05-14T01:03:46.643Z,2.97
2023-05-14T01:06:21.722Z,3.00
2023-05-14T01:09:11.613Z,3.05
2023-05-14T01:12:02.271Z,3.08
2023-05-14T01:14:42.357Z,3.04
2023-05-14T01:17:14.119Z,2.52
2023-05-14T01:19:48.087Z,2.90
2023-05-14T01:22:17.158Z,2.72
2023-05-14T01:24:45.979Z,2.37
2023-05-14T01:27:32.670Z,2.83
2023-05-14T01:30:13.976Z,2.78
2023-05-14T01:32:45.833Z,2.60
2023-05-14T01:35:15.431Z,2.60
2023-05-14T01:37:46.908Z,2.56
2023-05-14T01:40:16.465Z,2.53
2023-05-14T01:42:48.907Z,2.65
2023-05-14T01:45:17.713Z,2.55
2023-05-14T01:47:46.823Z,2.47
2023-05-14T01:50:15.893Z,2.67
2023-05-14T01:52:44.966Z,2.53
2023-05-14T01:55:13.624Z,2.25
2023-05-14T01:57:42.754Z,2.53
2023-05-14T02:00:12.189Z,2.40
2023-05-14T02:02:43.715Z,2.65
2023-05-14T02:05:14.865Z,2.66
2023-05-14T02:07:43.618Z,2.84
2023-05-14T02:10:12.465Z,2.94
2023-05-14T02:12:41.296Z,3.11
2023-05-14T02:15:11.752Z,2.96
2023-05-14T02:17:40.472Z,3.10
2023-05-14T02:20:10.987Z,3.09
2023-05-14T02:22:42.959Z,3.17
2023-05-14T02:25:15.060Z,3.20
2023-05-14T02:27:43.833Z,3.22
2023-05-14T02:30:13.568Z,2.96
2023-05-14T02:32:42.484Z,3.37
2023-05-14T02:35:11.509Z,3.38
2023-05-14T02:37:40.583Z,3.42
2023-05-14T02:40:09.844Z,3.42
2023-05-14T02:42:38.556Z,3.54
2023-05-14T02:45:08.089Z,3.36
2023-05-14T02:47:38.254Z,3.36
2023-05-14T02:50:07.718Z,3.39
2023-05-14T02:52:36.750Z,3.41
2023-05-14T02:55:06.311Z,3.55
2023-05-14T02:57:35.074Z,3.51
2023-05-14T03:00:03.951Z,3.44
2023-05-14T03:02:33.332Z,3.51
2023-05-14T03:05:02.929Z,3.58
2023-05-14T03:07:31.676Z,3.66
2023-05-14T03:10:01.039Z,3.55
2023-05-14T03:12:32.502Z,3.52
2023-05-14T03:15:01.220Z,3.68
2023-05-14T03:17:30.183Z,3.75
2023-05-14T03:19:58.917Z,3.71
2023-05-14T03:22:28.788Z,3.67
2023-05-14T03:24:57.575Z,3.74
2023-05-14T03:27:26.432Z,3.71
2023-05-14T03:29:55.074Z,3.78
2023-05-14T03:32:23.952Z,3.92
2023-05-14T03:34:52.660Z,3.97
2023-05-14T03:37:21.618Z,4.01
2023-05-14T03:39:50.513Z,4.06
2023-05-14T03:42:19.161Z,4.20
2023-05-14T03:44:47.870Z,4.20
2023-05-14T03:47:17.194Z,4.30
2023-05-14T03:49:46.112Z,4.36
2023-05-14T03:52:16.430Z,4.45
2023-05-14T03:54:46.252Z,4.57
2023-05-14T03:57:16.650Z,4.58
2023-05-14T03:59:45.472Z,4.74
2023-05-14T04:02:14.794Z,4.67
2023-05-14T04:04:43.714Z,4.78
2023-05-14T04:07:12.510Z,4.93
2023-05-14T04:09:41.320Z,4.87
2023-05-14T04:12:10.397Z,5.09
2023-05-14T04:14:38.951Z,5.14
2023-05-14T04:17:07.758Z,5.16
2023-05-14T04:19:36.683Z,5.38
2023-05-14T04:22:06.156Z,5.43
2023-05-14T04:24:35.188Z,5.55
2023-05-14T04:27:04.065Z,5.67
2023-05-14T04:29:32.949Z,5.90
2023-05-14T04:32:01.783Z,5.54
2023-05-14T04:34:30.511Z,6.07
2023-05-14T04:36:59.408Z,6.28
2023-05-14T04:39:28.393Z,6.25
2023-05-14T04:41:57.046Z,6.22
2023-05-14T04:44:27.115Z,6.45
2023-05-14T04:46:56.066Z,6.62
2023-05-14T04:49:27.526Z,7.01
2023-05-14T04:51:58.620Z,6.87
2023-05-14T04:54:27.481Z,7.52
2023-05-14T04:56:56.745Z,7.86
2023-05-14T04:59:25.565Z,7.93
2023-05-14T05:01:54.285Z,7.93
2023-05-14T05:04:24.824Z,8.20
2023-05-14T05:06:53.636Z,8.10
2023-05-14T05:09:22.369Z,8.19
2023-05-14T05:11:51.408Z,8.26
2023-05-14T05:14:20.632Z,8.43
2023-05-14T05:16:49.272Z,8.52
2023-05-14T05:19:18.851Z,8.61
2023-05-14T05:21:49.869Z,8.60
2023-05-14T05:24:18.639Z,8.63
2023-05-14T05:26:47.891Z,8.38
2023-05-14T05:29:16.930Z,8.51
2023-05-14T05:31:45.608Z,8.53
2023-05-14T05:34:14.262Z,8.54
2023-05-14T05:36:42.991Z,8.75
2023-05-14T05:39:12.136Z,8.64
2023-05-14T05:41:41.373Z,8.82
2023-05-14T05:44:10.167Z,9.02
2023-05-14T05:46:39.072Z,8.91
2023-05-14T05:49:08.201Z,8.96
2023-05-14T05:51:36.985Z,8.85
2023-05-14T05:54:05.931Z,8.86
2023-05-14T05:56:34.807Z,9.07
2023-05-14T05:59:04.687Z,9.11
2023-05-14T06:01:33.690Z,9.27
2023-05-14T06:04:02.754Z,9.06
2023-05-14T06:06:33.477Z,8.91
2023-05-14T06:09:02.979Z,8.83
2023-05-14T06:11:31.655Z,8.76
2023-05-14T06:14:00.504Z,8.66
2023-05-14T06:16:29.578Z,8.84
2023-05-14T06:18:58.434Z,8.39
2023-05-14T06:21:29.189Z,9.05
2023-05-14T06:23:58.118Z,9.12
2023-05-14T06:26:27.056Z,9.03
2023-05-14T06:28:56.083Z,8.87
2023-05-14T06:31:24.742Z,8.73
2023-05-14T06:33:53.632Z,8.72
2023-05-14T06:36:22.561Z,8.88
2023-05-14T06:38:51.295Z,8.54
2023-05-14T06:41:20.168Z,9.00
2023-05-14T06:43:48.878Z,9.21
2023-05-14T06:46:19.947Z,9.23
2023-05-14T06:48:51.282Z,9.35
2023-05-14T06:51:20.247Z,9.24
2023-05-14T06:53:49.572Z,9.37
2023-05-14T06:56:18.475Z,9.41
2023-05-14T06:58:47.289Z,9.31
2023-05-14T07:01:16.132Z,9.02
2023-05-14T07:03:45.009Z,9.33
2023-05-14T07:06:14.927Z,9.53
2023-05-14T07:08:48.701Z,9.62
2023-05-14T07:11:17.433Z,9.86
2023-05-14T07:13:46.355Z,9.99
2023-05-14T07:16:15.109Z,9.94
2023-05-14T07:18:44.567Z,10.07
2023-05-14T07:21:13.572Z,10.18
2023-05-14T07:23:42.448Z,9.96
2023-05-14T07:26:11.171Z,10.06
2023-05-14T07:28:40.032Z,10.53
2023-05-14T07:31:09.615Z,10.71
2023-05-14T07:33:39.369Z,10.80
2023-05-14T07:36:08.888Z,10.67
2023-05-14T07:38:37.755Z,11.07
2023-05-14T07:41:06.668Z,11.09
2023-05-14T07:43:35.475Z,11.30
2023-05-14T07:46:04.350Z,11.49
2023-05-14T07:48:32.992Z,11.56
2023-05-14T07:51:02.038Z,11.63
2023-05-14T07:53:30.813Z,12.00
2023-05-14T07:56:00.877Z,11.75
2023-05-14T07:58:29.570Z,12.13
2023-05-14T08:01:01.326Z,12.15
2023-05-14T08:03:30.127Z,12.16
2023-05-14T08:05:58.967Z,12.25
2023-05-14T08:08:28.592Z,12.39
2023-05-14T08:10:57.667Z,12.59
2023-05-14T08:13:26.646Z,12.53
2023-05-14T08:15:55.351Z,12.39
2023-05-14T08:18:23.916Z,12.77
2023-05-14T08:20:52.969Z,12.85
2023-05-14T08:23:21.653Z,13.40
2023-05-14T08:25:50.452Z,13.77
2023-05-14T08:28:19.091Z,13.71
2023-05-14T08:30:48.366Z,13.82
2023-05-14T08:33:17.125Z,13.51
2023-05-14T08:35:45.978Z,13.15
2023-05-14T08:38:14.594Z,12.62
2023-05-14T08:40:57.458Z,12.87
2023-05-14T08:43:35.338Z,13.13
2023-05-14T08:46:07.056Z,13.06
2023-05-14T08:48:36.751Z,12.74
2023-05-14T08:51:08.885Z,13.03
2023-05-14T08:53:39.030Z,13.05
2023-05-14T08:56:09.890Z,13.14
2023-05-14T08:58:39.381Z,13.22
2023-05-14T09:01:08.273Z,13.45
2023-05-14T09:03:38.096Z,13.56
2023-05-14T09:06:07.657Z,13.65
2023-05-14T09:08:37.293Z,13.84
2023-05-14T09:11:06.274Z,13.83
2023-05-14T09:13:39.588Z,13.74
2023-05-14T09:16:08.739Z,13.88
2023-05-14T09:18:38.185Z,14.05
2023-05-14T09:21:06.959Z,14.24
2023-05-14T09:23:36.007Z,14.17
2023-05-14T09:26:08.028Z,14.23
2023-05-14T09:28:36.868Z,14.19
2023-05-14T09:31:06.420Z,14.45
2023-05-14T09:33:35.208Z,14.50
2023-05-14T09:36:06.078Z,14.51
2023-05-14T09:38:36.196Z,14.44
2023-05-14T09:41:05.013Z,14.35
2023-05-14T09:43:34.491Z,14.54
2023-05-14T09:46:03.376Z,14.65
2023-05-14T09:48:32.457Z,14.65
2023-05-14T09:51:02.687Z,14.67
2023-05-14T09:53:36.448Z,14.33
2023-05-14T09:56:05.792Z,14.73
2023-05-14T09:58:35.253Z,14.75
2023-05-14T10:01:04.191Z,14.70
2023-05-14T10:03:33.610Z,14.79
2023-05-14T10:06:06.389Z,14.88
2023-05-14T10:08:37.015Z,14.62
2023-05-14T10:11:13.201Z,14.95
2023-05-14T10:13:47.069Z,14.87
2023-05-14T10:16:47.429Z,14.80
2023-05-14T10:19:18.338Z,15.00
2023-05-14T10:21:54.057Z,15.09
2023-05-14T10:24:24.152Z,15.09
2023-05-14T10:26:53.315Z,15.13
2023-05-14T10:29:34.577Z,15.00
2023-05-14T10:32:10.465Z,14.94
2023-05-14T10:34:47.026Z,14.94
2023-05-14T10:37:18.568Z,15.06
2023-05-14T10:39:54.839Z,15.13
2023-05-14T10:42:28.326Z,15.19
2023-05-14T10:45:03.433Z,15.06
2023-05-14T10:47:37.807Z,14.97
2023-05-14T10:50:08.698Z,15.08
2023-05-14T10:52:38.325Z,15.18
2023-05-14T10:55:11.601Z,15.29
2023-05-14T10:57:43.128Z,15.28
2023-05-14T11:00:13.932Z,15.34
2023-05-14T11:02:45.290Z,15.38
2023-05-14T11:05:18.481Z,15.24
2023-05-14T11:07:50.148Z,15.33
2023-05-14T11:10:20.825Z,15.38
2023-05-14T11:12:54.621Z,15.39
2023-05-14T11:15:25.734Z,15.29
2023-05-14T11:17:55.447Z,14.85
2023-05-14T11:20:24.658Z,15.11
2023-05-14T11:22:53.968Z,15.18
2023-05-14T11:25:23.432Z,15.22
2023-05-14T11:27:52.601Z,15.19
2023-05-14T11:30:22.875Z,15.25
2023-05-14T11:32:52.042Z,15.21
2023-05-14T11:35:21.121Z,14.88
2023-05-14T11:37:56.299Z,15.14
2023-05-14T11:40:25.252Z,15.23
2023-05-14T11:42:57.335Z,15.22
2023-05-14T11:45:27.714Z,15.14
2023-05-14T11:47:57.005Z,15.21
2023-05-14T11:50:26.269Z,15.21
2023-05-14T11:52:58.473Z,15.09
2023-05-14T11:55:27.422Z,14.94
2023-05-14T11:57:56.070Z,15.10
2023-05-14T12:00:25.898Z,14.92
2023-05-14T12:02:55.928Z,14.94
2023-05-14T12:05:24.779Z,14.82
2023-05-14T12:07:53.607Z,14.75
2023-05-14T12:10:22.562Z,14.70
2023-05-14T12:12:51.649Z,14.75
2023-05-14T12:15:22.926Z,14.75
2023-05-14T12:17:54.972Z,14.78
2023-05-14T12:20:24.945Z,14.90
2023-05-14T12:22:54.055Z,14.82
2023-05-14T12:25:22.914Z,14.84
2023-05-14T12:27:51.753Z,14.69
2023-05-14T12:30:21.684Z,14.76
2023-05-14T12:33:03.557Z,14.35
2023-05-14T12:35:32.504Z,14.59
2023-05-14T12:38:01.443Z,14.27
2023-05-14T12:40:30.354Z,14.57
2023-05-14T12:42:59.258Z,14.65
2023-05-14T12:45:27.960Z,14.61
2023-05-14T12:47:56.842Z,14.59
2023-05-14T12:50:25.918Z,14.31
2023-05-14T12:52:55.057Z,14.68
2023-05-14T12:55:23.796Z,14.61
2023-05-14T12:57:52.739Z,14.27
2023-05-14T13:00:21.714Z,14.56
2023-05-14T13:02:50.638Z,14.57
2023-05-14T13:05:19.559Z,14.17
2023-05-14T13:07:48.523Z,14.39
2023-05-14T13:10:19.285Z,14.33
2023-05-14T13:12:48.014Z,14.29
2023-05-14T13:15:16.878Z,14.31
2023-05-14T13:17:48.541Z,14.30
2023-05-14T13:20:19.161Z,14.25
2023-05-14T13:22:47.973Z,14.34
2023-05-14T13:25:17.011Z,13.94
2023-05-14T13:27:45.902Z,14.28
2023-05-14T13:30:14.679Z,14.26
2023-05-14T13:32:43.645Z,14.31
2023-05-14T13:35:13.245Z,14.22
2023-05-14T13:37:41.942Z,14.12
2023-05-14T13:40:11.673Z,14.13
2023-05-14T13:42:43.363Z,14.11
2023-05-14T13:45:13.971Z,14.07
2023-05-14T13:47:42.782Z,14.05
2023-05-14T13:50:11.951Z,13.97
2023-05-14T13:52:40.756Z,13.73
2023-05-14T13:55:10.045Z,14.05
2023-05-14T13:57:40.374Z,13.88
2023-05-14T14:00:10.215Z,13.90
2023-05-14T14:02:39.109Z,13.77
2023-05-14T14:05:08.314Z,13.63
2023-05-14T14:07:37.193Z,13.69
2023-05-14T14:10:06.288Z,13.52
2023-05-14T14:12:35.232Z,13.37
2023-05-14T14:15:04.815Z,13.48
2023-05-14T14:17:35.504Z,13.41
2023-05-14T14:20:06.725Z,13.35
2023-05-14T14:22:35.666Z,13.19
2023-05-14T14:25:04.960Z,12.74
2023-05-14T14:27:35.604Z,13.04
2023-05-14T14:30:04.643Z,12.83
2023-05-14T14:32:33.601Z,12.71
2023-05-14T14:35:02.684Z,12.11
2023-05-14T14:37:31.349Z,12.56
2023-05-14T14:40:00.204Z,12.42
2023-05-14T14:42:28.977Z,12.28
2023-05-14T14:44:57.932Z,12.06
2023-05-14T14:47:26.753Z,11.98
2023-05-14T14:49:55.551Z,11.86
2023-05-14T14:52:25.491Z,11.33
2023-05-14T14:54:56.438Z,11.22
2023-05-14T14:57:25.386Z,11.47
2023-05-14T14:59:54.326Z,11.28
2023-05-14T15:02:23.683Z,11.03
2023-05-14T15:04:52.638Z,10.77
2023-05-14T15:07:22.994Z,10.52
2023-05-14T15:09:51.632Z,10.37
2023-05-14T15:12:20.558Z,10.26
2023-05-14T15:14:49.530Z,9.94
2023-05-14T15:17:18.394Z,9.85
2023-05-14T15:19:47.437Z,9.58
2023-05-14T15:22:16.282Z,9.48
2023-05-14T15:24:45.199Z,8.94
2023-05-14T15:27:13.963Z,9.12
2023-05-14T15:29:42.810Z,8.86
2023-05-14T15:32:11.577Z,8.77
2023-05-14T15:34:40.440Z,8.65
2023-05-14T15:37:09.284Z,8.22
2023-05-14T15:39:38.172Z,8.37
2023-05-14T15:42:07.224Z,8.23
2023-05-14T15:44:38.954Z,8.12
2023-05-14T15:47:08.048Z,8.10
2023-05-14T15:49:36.791Z,7.90
2023-05-14T15:52:05.733Z,7.70
2023-05-14T15:54:34.694Z,7.80
2023-05-14T15:57:03.264Z,7.27
2023-05-14T15:59:32.072Z,7.64
2023-05-14T16:02:00.901Z,7.53
2023-05-14T16:04:29.874Z,7.44
2023-05-14T16:07:10.251Z,7.10
2023-05-14T16:09:40.004Z,7.24
2023-05-14T16:12:09.998Z,7.13
2023-05-14T16:14:40.552Z,7.05
2023-05-14T16:17:10.662Z,6.98
2023-05-14T16:19:40.621Z,6.74
2023-05-14T16:22:11.801Z,6.73
2023-05-14T16:24:40.700Z,6.55
2023-05-14T16:27:09.329Z,6.54
2023-05-14T16:29:38.058Z,6.32
2023-05-14T16:32:07.137Z,6.37
2023-05-14T16:34:36.010Z,6.20
2023-05-14T16:37:04.836Z,6.13
2023-05-14T16:39:35.826Z,6.15
2023-05-14T16:42:04.698Z,5.58
2023-05-14T16:44:33.445Z,6.01
2023-05-14T16:47:01.955Z,5.91
2023-05-14T16:49:30.643Z,5.93
2023-05-14T16:51:59.456Z,5.79
2023-05-14T16:54:28.362Z,5.68
2023-05-14T16:56:57.026Z,5.74
2023-05-14T16:59:26.142Z,5.30
2023-05-14T17:01:55.033Z,5.63
2023-05-14T17:04:25.851Z,5.57
2023-05-14T17:06:54.701Z,5.64
2023-05-14T17:09:23.498Z,5.70
2023-05-14T17:11:52.288Z,5.54
2023-05-14T17:14:23.757Z,5.72
2023-05-14T17:16:52.529Z,5.58
2023-05-14T17:19:21.233Z,5.73
2023-05-14T17:21:50.028Z,5.75
2023-05-14T17:24:18.749Z,5.30
2023-05-14T17:26:47.558Z,5.74
2023-05-14T17:29:16.524Z,5.73
2023-05-14T17:31:45.224Z,5.77
2023-05-14T17:34:14.533Z,5.79
2023-05-14T17:36:43.074Z,5.74
2023-05-14T17:39:12.322Z,5.67
2023-05-14T17:41:42.872Z,5.62
2023-05-14T17:44:13.147Z,5.24
2023-05-14T17:46:43.192Z,5.72
2023-05-14T17:49:12.654Z,5.69
2023-05-14T17:51:41.511Z,5.45
2023-05-14T17:54:12.318Z,5.66
2023-05-14T17:56:41.048Z,5.57
2023-05-14T17:59:12.649Z,5.42
2023-05-14T18:01:42.091Z,5.36
2023-05-14T18:04:11.349Z,5.28
2023-05-14T18:06:40.232Z,5.41
2023-05-14T18:09:09.082Z,4.93
2023-05-14T18:11:37.830Z,5.41
2023-05-14T18:14:06.614Z,4.92
2023-05-14T18:16:35.803Z,5.24
2023-05-14T18:19:04.684Z,5.36
2023-05-14T18:21:33.513Z,5.42
2023-05-14T18:24:02.179Z,5.39
2023-05-14T18:26:33.590Z,5.27
2023-05-14T18:29:03.197Z,5.20
2023-05-14T18:31:32.445Z,4.78
2023-05-14T18:34:01.477Z,5.22
2023-05-14T18:36:30.262Z,5.02
2023-05-14T18:38:59.112Z,4.90
2023-05-14T18:41:27.898Z,4.99
2023-05-14T18:43:58.855Z,4.91
2023-05-14T18:46:27.883Z,4.90
2023-05-14T18:49:00.055Z,4.88
2023-05-14T18:51:31.343Z,4.94
2023-05-14T18:54:00.162Z,4.88
2023-05-14T18:56:28.804Z,4.93
2023-05-14T18:58:57.635Z,4.90
2023-05-14T19:01:26.543Z,4.93
2023-05-14T19:03:55.856Z,4.74
2023-05-14T19:06:25.116Z,4.89
2023-05-14T19:08:55.415Z,4.93
2023-05-14T19:11:24.154Z,5.06
2023-05-14T19:13:53.303Z,5.09
2023-05-14T19:16:22.186Z,5.16
2023-05-14T19:18:51.425Z,5.10
2023-05-14T19:21:20.577Z,5.26
2023-05-14T19:23:49.358Z,5.18
2023-05-14T19:26:18.242Z,5.30
2023-05-14T19:28:47.015Z,5.23
2023-05-14T19:31:16.471Z,5.15
2023-05-14T19:33:45.329Z,5.08
2023-05-14T19:36:14.351Z,5.09
2023-05-14T19:38:43.172Z,4.99
2023-05-14T19:41:11.828Z,4.96
2023-05-14T19:43:40.700Z,5.01
2023-05-14T19:46:09.402Z,4.82
2023-05-14T19:48:39.571Z,4.83
2023-05-14T19:51:08.465Z,4.77
2023-05-14T19:53:37.252Z,4.86
2023-05-14T19:56:06.107Z,4.73
2023-05-14T19:58:35.109Z,4.84
2023-05-14T20:01:05.159Z,4.92
2023-05-14T20:03:34.154Z,4.38
2023-05-14T20:06:02.911Z,4.69
2023-05-14T20:08:32.216Z,4.88
2023-05-14T20:11:01.177Z,4.81
2023-05-14T20:13:32.619Z,4.58
2023-05-14T20:16:02.110Z,4.87
2023-05-14T20:18:31.057Z,4.81
2023-05-14T20:20:59.892Z,4.91
2023-05-14T20:23:28.899Z,4.73
2023-05-14T20:26:02.659Z,4.93
2023-05-14T20:28:31.704Z,4.79
2023-05-14T20:31:01.086Z,4.69
2023-05-14T20:33:30.194Z,4.57
2023-05-14T20:35:59.261Z,4.63
2023-05-14T20:38:30.278Z,4.54
2023-05-14T20:40:58.994Z,4.51
2023-05-14T20:43:28.639Z,4.09
2023-05-14T20:45:59.767Z,4.59
2023-05-14T20:48:28.800Z,4.54
2023-05-14T20:50:57.726Z,4.48
2023-05-14T20:53:26.591Z,4.44
2023-05-14T20:55:55.411Z,4.44
2023-05-14T20:58:24.214Z,4.28
2023-05-14T21:00:55.201Z,3.83
2023-05-14T21:03:24.203Z,4.26
2023-05-14T21:05:55.412Z,4.18
2023-05-14T21:08:24.269Z,4.25
2023-05-14T21:10:52.955Z,4.31
2023-05-14T21:13:21.904Z,4.22
2023-05-14T21:15:50.847Z,4.17
2023-05-14T21:18:19.507Z,4.33
2023-05-14T21:20:48.298Z,4.19
2023-05-14T21:23:16.962Z,4.08
2023-05-14T21:25:45.875Z,4.15
2023-05-14T21:28:14.551Z,4.23
2023-05-14T21:30:43.270Z,3.57
2023-05-14T21:33:12.776Z,4.22
2023-05-14T21:35:42.056Z,4.34
2023-05-14T21:38:10.940Z,4.23
2023-05-14T21:40:39.768Z,4.20
2023-05-14T21:43:08.573Z,4.27
2023-05-14T21:45:37.249Z,4.40
2023-05-14T21:48:09.028Z,4.53
2023-05-14T21:50:38.007Z,4.58
2023-05-14T21:53:06.886Z,4.54
2023-05-14T21:55:36.209Z,4.60
2023-05-14T21:58:05.363Z,4.47
2023-05-14T22:00:34.432Z,4.65
2023-05-14T22:03:03.326Z,4.86
2023-05-14T22:05:32.114Z,4.90
2023-05-14T22:08:00.910Z,4.91
2023-05-14T22:10:29.737Z,5.01
2023-05-14T22:12:58.533Z,4.97
2023-05-14T22:15:27.304Z,5.09
2023-05-14T22:17:56.611Z,5.19
2023-05-14T22:20:25.396Z,5.30
2023-05-14T22:22:54.247Z,5.26
2023-05-14T22:25:23.419Z,5.42
2023-05-14T22:27:52.458Z,5.47
2023-05-14T22:30:21.788Z,5.48
2023-05-14T22:32:50.610Z,5.50
2023-05-14T22:35:19.426Z,5.65
2023-05-14T22:37:48.605Z,5.71
2023-05-14T22:40:17.254Z,5.75
2023-05-14T22:42:46.198Z,5.94
2023-05-14T22:45:15.160Z,5.86
2023-05-14T22:47:44.216Z,5.87
2023-05-14T22:50:13.180Z,5.97
2023-05-14T22:52:42.329Z,6.07
2023-05-14T22:55:11.353Z,5.94
2023-05-14T22:57:40.400Z,5.91
2023-05-14T23:00:09.850Z,5.94
2023-05-14T23:02:38.743Z,5.94
2023-05-14T23:05:09.495Z,6.04
2023-05-14T23:07:38.337Z,6.03
2023-05-14T23:10:07.635Z,6.28
2023-05-14T23:12:36.250Z,6.23
2023-05-14T23:15:05.441Z,6.35
2023-05-14T23:17:34.270Z,6.39
2023-05-14T23:20:03.041Z,6.49
2023-05-14T23:22:31.843Z,6.49
2023-05-14T23:25:03.272Z,6.50
2023-05-14T23:27:32.075Z,6.50
2023-05-14T23:30:00.838Z,6.47
2023-05-14T23:32:29.848Z,6.44
2023-05-14T23:34:58.798Z,6.65
2023-05-14T23:37:27.623Z,6.66
2023-05-14T23:39:56.349Z,6.61
2023-05-14T23:42:25.729Z,6.64
2023-05-14T23:44:54.431Z,6.74
2023-05-14T23:47:23.389Z,6.67
2023-05-14T23:49:52.224Z,6.71
2023-05-14T23:52:20.972Z,6.83
2023-05-14T23:54:49.904Z,6.74
2023-05-14T23:57:18.745Z,6.88
2023-05-14T23:59:50.133Z,6.91
